Alderton, Washington
Current Conditions -  °F | °C
As of 2:58 AM on Wednesday 26 Nov 2014 (Local Time) from KTCM Reporting Station
Broken Clouds Broken Clouds  
Wind Chill: 55°   Ceiling: 5000
Heat Index: 55°   Visibility: 10mi
Dew Point: 55°   Wind: 8mph
Humidity: 99%   Direction: 200°SSW
Pressure: 30.2"   Gusts: NA
Location:  47.1905°N, 122.328°W
Report Text: KTCM 261058Z AUTO 20007KT 10SM FEW027 SCT040 BKN050 BKN060 13/13 A3020 RMK AO2 SLP231 T01280127 $
Loading
Personal Weather Stations






























Interactive Weather Map New forecast layout! Learn more

10-Day Weather Forecast

Advertisements
Track Severe Weather on mobile